Aérodrome :
LOGIN :

S'inscrire | Disclaimer

   EN    FR    IT 

 










Légende :    VFR   VFR Marginal   IFR   IFR Intensif   IFR Très Intensif
Visi : 
Plafond : 
>= 8 km
>= 3000ft
5 à 8 km
1000 à 3000 ft
1500m à 5 km
500 à 1000 ft
800 à 1500m
200 à 500 ft
< 800m
< 200 ft
Symboles :   Orages  Brouillard  Fortes neiges  Fortes précipitations  Vent > 20 kt
SIGMETs :   Divers  Orages  Givrage  Turbulence  Onde Orograph.  Cendres Volcan.






- Altitude de l'aérodrome : 42 ft
- Code IATA : CAL


EGEC - Campbeltown

DERNIER METAR :
  • 011050Z 24008KT 9999 BKN017 SCT023 09/06 Q1027

METARs EXPIRÉS :
  • 011020Z 19004KT 9999 BKN023 09/06 Q1027
  • 010950Z 20005KT 9999 SCT026 BKN030 08/05 Q1027
  • 010920Z 21007KT 9999 SCT027 08/05 Q1027
  • 010850Z 22006KT 9999 SCT031 08/06 Q1027
  • 010820Z 11005KT 9999 SCT024 SCT030 BKN034 07/05 Q1027

TAF TAF EGEC
Valide du 01 à 09h jusqu'au 01 à 18h UTC


010759Z 0109/0118 26007KT 9999 SCT015 BKN020
PROB30
TEMPO 0109/0111 8000 -DZ BKN014
TEMPO 0111/0118 8000 -DZ BKN008
PROB30
TEMPO 0111/0118 4000 DZ BKN004



MET'MAP, la Météo Aéronautique d'un coup d'oeil ! - Copyright ORBIFLY Décembre 2007 - Disclaimer

ORBIFLY MET'MAP TEAM :

Programmation & Développement : Alexandra Zaïnal
Sur une idée originale de : Baudouin d'Aumeries
Assistance à la programmation : Marc-Olivier Méhu
Soutien technique & logistique : Manuel Goepfert

Contact : metmap@orbifly.com




SOURCES & CREDITS :

   NOAA